sensor_id;sensor_type;location;lat;lon;timestamp;P1;P2;P0
70691;PMS5003;58267;51.156;17.044;2023-02-17T00:01:58;95;87;
70691;PMS5003;58267;51.156;17.044;2023-02-17T00:04:23;92;80;
70691;PMS5003;58267;51.156;17.044;2023-02-17T00:06:49;91;76;
70691;PMS5003;58267;51.156;17.044;2023-02-17T00:09:14;73;70;
70691;PMS5003;58267;51.156;17.044;2023-02-17T00:11:39;88;81;
70691;PMS5003;58267;51.156;17.044;2023-02-17T00:14:05;89;86;
70691;PMS5003;58267;51.156;17.044;2023-02-17T00:16:30;90;85;
70691;PMS5003;58267;51.156;17.044;2023-02-17T00:18:57;91;84;
70691;PMS5003;58267;51.156;17.044;2023-02-17T00:21:22;96;86;
70691;PMS5003;58267;51.156;17.044;2023-02-17T00:23:47;96;89;
70691;PMS5003;58267;51.156;17.044;2023-02-17T00:26:13;86;81;
70691;PMS5003;58267;51.156;17.044;2023-02-17T00:28:38;81;78;
70691;PMS5003;58267;51.156;17.044;2023-02-17T00:31:05;80;75;
70691;PMS5003;58267;51.156;17.044;2023-02-17T00:33:29;92;82;
70691;PMS5003;58267;51.156;17.044;2023-02-17T00:35:54;77;72;
70691;PMS5003;58267;51.156;17.044;2023-02-17T00:38:19;83;81;
70691;PMS5003;58267;51.156;17.044;2023-02-17T00:40:45;80;77;
70691;PMS5003;58267;51.156;17.044;2023-02-17T00:43:11;104;91;
70691;PMS5003;58267;51.156;17.044;2023-02-17T00:45:36;128;107;
70691;PMS5003;58267;51.156;17.044;2023-02-17T00:48:02;163;143;
70691;PMS5003;58267;51.156;17.044;2023-02-17T00:50:27;133;113;
70691;PMS5003;58267;51.156;17.044;2023-02-17T00:52:54;144;117;
70691;PMS5003;58267;51.156;17.044;2023-02-17T00:55:19;117;104;
70691;PMS5003;58267;51.156;17.044;2023-02-17T00:57:45;108;92;
70691;PMS5003;58267;51.156;17.044;2023-02-17T01:00:10;97;83;
70691;PMS5003;58267;51.156;17.044;2023-02-17T01:02:35;92;84;
70691;PMS5003;58267;51.156;17.044;2023-02-17T01:05:01;101;90;
70691;PMS5003;58267;51.156;17.044;2023-02-17T01:07:27;92;82;
70691;PMS5003;58267;51.156;17.044;2023-02-17T01:09:52;89;82;
70691;PMS5003;58267;51.156;17.044;2023-02-17T01:12:18;76;73;
70691;PMS5003;58267;51.156;17.044;2023-02-17T01:14:43;87;79;
70691;PMS5003;58267;51.156;17.044;2023-02-17T01:17:09;79;77;
70691;PMS5003;58267;51.156;17.044;2023-02-17T01:19:34;91;85;
70691;PMS5003;58267;51.156;17.044;2023-02-17T01:22:00;87;80;
70691;PMS5003;58267;51.156;17.044;2023-02-17T01:24:25;88;82;
70691;PMS5003;58267;51.156;17.044;2023-02-17T01:26:51;73;68;
70691;PMS5003;58267;51.156;17.044;2023-02-17T01:29:16;81;75;
70691;PMS5003;58267;51.156;17.044;2023-02-17T01:31:41;79;70;
70691;PMS5003;58267;51.156;17.044;2023-02-17T01:34:07;81;69;
70691;PMS5003;58267;51.156;17.044;2023-02-17T01:36:32;71;66;
70691;PMS5003;58267;51.156;17.044;2023-02-17T01:38:58;70;65;
70691;PMS5003;58267;51.156;17.044;2023-02-17T01:41:24;77;67;
70691;PMS5003;58267;51.156;17.044;2023-02-17T01:46:14;72;66;
70691;PMS5003;58267;51.156;17.044;2023-02-17T01:48:40;83;71;
70691;PMS5003;58267;51.156;17.044;2023-02-17T01:51:06;80;70;
70691;PMS5003;58267;51.156;17.044;2023-02-17T01:53:31;75;68;
70691;PMS5003;58267;51.156;17.044;2023-02-17T01:55:55;60;50;
70691;PMS5003;58267;51.156;17.044;2023-02-17T01:58:21;66;64;
70691;PMS5003;58267;51.156;17.044;2023-02-17T02:00:46;69;63;
70691;PMS5003;58267;51.156;17.044;2023-02-17T02:03:11;77;69;
70691;PMS5003;58267;51.156;17.044;2023-02-17T02:05:37;71;65;
70691;PMS5003;58267;51.156;17.044;2023-02-17T02:08:02;70;64;
70691;PMS5003;58267;51.156;17.044;2023-02-17T02:10:27;74;70;
70691;PMS5003;58267;51.156;17.044;2023-02-17T02:12:52;77;70;
70691;PMS5003;58267;51.156;17.044;2023-02-17T02:15:18;70;60;
70691;PMS5003;58267;51.156;17.044;2023-02-17T02:17:46;76;66;
70691;PMS5003;58267;51.156;17.044;2023-02-17T02:22:39;75;60;
70691;PMS5003;58267;51.156;17.044;2023-02-17T02:25:02;76;65;
70691;PMS5003;58267;51.156;17.044;2023-02-17T02:27:32;67;62;
70691;PMS5003;58267;51.156;17.044;2023-02-17T02:29:56;75;65;
70691;PMS5003;58267;51.156;17.044;2023-02-17T02:34:43;71;63;
70691;PMS5003;58267;51.156;17.044;2023-02-17T02:37:08;65;62;
70691;PMS5003;58267;51.156;17.044;2023-02-17T02:39:33;72;64;
70691;PMS5003;58267;51.156;17.044;2023-02-17T02:41:58;55;53;
70691;PMS5003;58267;51.156;17.044;2023-02-17T02:44:23;79;65;
70691;PMS5003;58267;51.156;17.044;2023-02-17T02:49:13;69;60;
70691;PMS5003;58267;51.156;17.044;2023-02-17T02:51:41;73;67;
70691;PMS5003;58267;51.156;17.044;2023-02-17T02:56:34;47;47;
70691;PMS5003;58267;51.156;17.044;2023-02-17T02:58:58;70;66;
70691;PMS5003;58267;51.156;17.044;2023-02-17T03:01:22;72;68;
70691;PMS5003;58267;51.156;17.044;2023-02-17T03:03:47;61;55;
70691;PMS5003;58267;51.156;17.044;2023-02-17T03:06:13;67;61;
70691;PMS5003;58267;51.156;17.044;2023-02-17T03:08:37;59;54;
70691;PMS5003;58267;51.156;17.044;2023-02-17T03:11:02;68;61;
70691;PMS5003;58267;51.156;17.044;2023-02-17T03:13:28;66;62;
70691;PMS5003;58267;51.156;17.044;2023-02-17T03:15:53;73;61;
70691;PMS5003;58267;51.156;17.044;2023-02-17T03:18:18;73;60;
70691;PMS5003;58267;51.156;17.044;2023-02-17T03:20:45;73;63;
70691;PMS5003;58267;51.156;17.044;2023-02-17T03:23:09;69;63;
70691;PMS5003;58267;51.156;17.044;2023-02-17T03:25:35;63;58;
70691;PMS5003;58267;51.156;17.044;2023-02-17T03:28:00;68;56;
70691;PMS5003;58267;51.156;17.044;2023-02-17T03:30:26;67;61;
70691;PMS5003;58267;51.156;17.044;2023-02-17T03:32:51;66;55;
70691;PMS5003;58267;51.156;17.044;2023-02-17T03:35:17;69;62;
70691;PMS5003;58267;51.156;17.044;2023-02-17T03:37:42;69;64;
70691;PMS5003;58267;51.156;17.044;2023-02-17T03:40:08;70;63;
70691;PMS5003;58267;51.156;17.044;2023-02-17T03:42:33;48;44;
70691;PMS5003;58267;51.156;17.044;2023-02-17T03:44:59;66;62;
70691;PMS5003;58267;51.156;17.044;2023-02-17T03:47:24;67;62;
70691;PMS5003;58267;51.156;17.044;2023-02-17T03:49:50;72;64;
70691;PMS5003;58267;51.156;17.044;2023-02-17T03:52:15;73;64;
70691;PMS5003;58267;51.156;17.044;2023-02-17T03:54:41;68;59;
70691;PMS5003;58267;51.156;17.044;2023-02-17T03:57:06;68;64;
70691;PMS5003;58267;51.156;17.044;2023-02-17T03:59:32;67;65;
70691;PMS5003;58267;51.156;17.044;2023-02-17T04:01:57;70;64;
70691;PMS5003;58267;51.156;17.044;2023-02-17T04:04:22;63;62;
70691;PMS5003;58267;51.156;17.044;2023-02-17T04:06:48;74;65;
70691;PMS5003;58267;51.156;17.044;2023-02-17T04:09:13;66;60;
70691;PMS5003;58267;51.156;17.044;2023-02-17T04:11:38;75;63;
70691;PMS5003;58267;51.156;17.044;2023-02-17T04:14:04;65;58;
70691;PMS5003;58267;51.156;17.044;2023-02-17T04:16:29;64;57;
70691;PMS5003;58267;51.156;17.044;2023-02-17T04:18:54;66;61;
70691;PMS5003;58267;51.156;17.044;2023-02-17T04:21:20;74;64;
70691;PMS5003;58267;51.156;17.044;2023-02-17T04:23:45;64;61;
70691;PMS5003;58267;51.156;17.044;2023-02-17T04:26:10;65;62;
70691;PMS5003;58267;51.156;17.044;2023-02-17T04:28:36;63;58;
70691;PMS5003;58267;51.156;17.044;2023-02-17T04:31:02;67;64;
70691;PMS5003;58267;51.156;17.044;2023-02-17T04:33:27;73;67;
70691;PMS5003;58267;51.156;17.044;2023-02-17T04:35:53;82;70;
70691;PMS5003;58267;51.156;17.044;2023-02-17T04:38:18;72;64;
70691;PMS5003;58267;51.156;17.044;2023-02-17T04:40:44;76;72;
70691;PMS5003;58267;51.156;17.044;2023-02-17T04:43:10;68;63;
70691;PMS5003;58267;51.156;17.044;2023-02-17T04:45:35;76;72;
70691;PMS5003;58267;51.156;17.044;2023-02-17T04:48:01;71;69;
70691;PMS5003;58267;51.156;17.044;2023-02-17T04:50:26;61;59;
70691;PMS5003;58267;51.156;17.044;2023-02-17T04:52:51;63;56;
70691;PMS5003;58267;51.156;17.044;2023-02-17T04:55:17;64;59;
70691;PMS5003;58267;51.156;17.044;2023-02-17T04:57:42;62;59;
70691;PMS5003;58267;51.156;17.044;2023-02-17T05:00:08;63;57;
70691;PMS5003;58267;51.156;17.044;2023-02-17T05:02:33;66;60;
70691;PMS5003;58267;51.156;17.044;2023-02-17T05:04:58;68;60;
70691;PMS5003;58267;51.156;17.044;2023-02-17T05:07:24;64;61;
70691;PMS5003;58267;51.156;17.044;2023-02-17T05:09:50;62;58;
70691;PMS5003;58267;51.156;17.044;2023-02-17T05:12:15;65;59;
70691;PMS5003;58267;51.156;17.044;2023-02-17T05:14:41;66;60;
70691;PMS5003;58267;51.156;17.044;2023-02-17T05:17:07;60;55;
70691;PMS5003;58267;51.156;17.044;2023-02-17T05:19:33;64;62;
70691;PMS5003;58267;51.156;17.044;2023-02-17T05:21:58;69;67;
70691;PMS5003;58267;51.156;17.044;2023-02-17T05:24:23;62;56;
70691;PMS5003;58267;51.156;17.044;2023-02-17T05:26:49;66;62;
70691;PMS5003;58267;51.156;17.044;2023-02-17T05:29:14;65;60;
70691;PMS5003;58267;51.156;17.044;2023-02-17T05:31:39;69;65;
70691;PMS5003;58267;51.156;17.044;2023-02-17T05:34:05;75;68;
70691;PMS5003;58267;51.156;17.044;2023-02-17T05:36:30;68;63;
70691;PMS5003;58267;51.156;17.044;2023-02-17T05:38:56;71;67;
70691;PMS5003;58267;51.156;17.044;2023-02-17T05:41:22;66;59;
70691;PMS5003;58267;51.156;17.044;2023-02-17T05:43:47;70;66;
70691;PMS5003;58267;51.156;17.044;2023-02-17T05:46:13;62;56;
70691;PMS5003;58267;51.156;17.044;2023-02-17T05:48:38;71;64;
70691;PMS5003;58267;51.156;17.044;2023-02-17T05:51:04;69;64;
70691;PMS5003;58267;51.156;17.044;2023-02-17T05:53:29;62;61;
70691;PMS5003;58267;51.156;17.044;2023-02-17T05:55:54;67;59;
70691;PMS5003;58267;51.156;17.044;2023-02-17T05:58:20;69;68;
70691;PMS5003;58267;51.156;17.044;2023-02-17T06:00:45;80;70;
70691;PMS5003;58267;51.156;17.044;2023-02-17T06:03:10;67;63;
70691;PMS5003;58267;51.156;17.044;2023-02-17T06:05:36;69;66;
70691;PMS5003;58267;51.156;17.044;2023-02-17T06:08:01;73;64;
70691;PMS5003;58267;51.156;17.044;2023-02-17T06:10:27;76;67;
70691;PMS5003;58267;51.156;17.044;2023-02-17T06:12:52;74;65;
70691;PMS5003;58267;51.156;17.044;2023-02-17T06:15:18;71;68;
70691;PMS5003;58267;51.156;17.044;2023-02-17T06:17:43;63;60;
70691;PMS5003;58267;51.156;17.044;2023-02-17T06:20:10;71;66;
70691;PMS5003;58267;51.156;17.044;2023-02-17T06:22:34;74;68;
70691;PMS5003;58267;51.156;17.044;2023-02-17T06:25:00;68;58;
70691;PMS5003;58267;51.156;17.044;2023-02-17T06:27:25;66;63;
70691;PMS5003;58267;51.156;17.044;2023-02-17T06:29:51;63;57;
70691;PMS5003;58267;51.156;17.044;2023-02-17T06:32:16;72;66;
70691;PMS5003;58267;51.156;17.044;2023-02-17T06:34:41;68;60;
70691;PMS5003;58267;51.156;17.044;2023-02-17T06:37:06;66;60;
70691;PMS5003;58267;51.156;17.044;2023-02-17T06:39:31;61;59;
70691;PMS5003;58267;51.156;17.044;2023-02-17T06:41:57;67;65;
70691;PMS5003;58267;51.156;17.044;2023-02-17T06:44:22;68;64;
70691;PMS5003;58267;51.156;17.044;2023-02-17T06:46:48;74;70;
70691;PMS5003;58267;51.156;17.044;2023-02-17T06:49:13;80;72;
70691;PMS5003;58267;51.156;17.044;2023-02-17T06:51:39;92;82;
70691;PMS5003;58267;51.156;17.044;2023-02-17T06:54:04;82;75;
70691;PMS5003;58267;51.156;17.044;2023-02-17T06:56:29;78;69;
70691;PMS5003;58267;51.156;17.044;2023-02-17T06:58:54;82;78;
70691;PMS5003;58267;51.156;17.044;2023-02-17T07:01:21;77;73;
70691;PMS5003;58267;51.156;17.044;2023-02-17T07:03:45;87;76;
70691;PMS5003;58267;51.156;17.044;2023-02-17T07:06:10;76;70;
70691;PMS5003;58267;51.156;17.044;2023-02-17T07:08:35;80;74;
70691;PMS5003;58267;51.156;17.044;2023-02-17T07:11:03;83;78;
70691;PMS5003;58267;51.156;17.044;2023-02-17T07:13:26;88;78;
70691;PMS5003;58267;51.156;17.044;2023-02-17T07:15:52;79;69;
70691;PMS5003;58267;51.156;17.044;2023-02-17T07:18:17;80;76;
70691;PMS5003;58267;51.156;17.044;2023-02-17T07:20:42;73;69;
70691;PMS5003;58267;51.156;17.044;2023-02-17T07:23:08;73;69;
70691;PMS5003;58267;51.156;17.044;2023-02-17T07:25:33;67;64;
70691;PMS5003;58267;51.156;17.044;2023-02-17T07:27:59;73;67;
70691;PMS5003;58267;51.156;17.044;2023-02-17T07:30:25;74;69;
70691;PMS5003;58267;51.156;17.044;2023-02-17T07:32:50;72;69;
70691;PMS5003;58267;51.156;17.044;2023-02-17T07:35:16;75;71;
70691;PMS5003;58267;51.156;17.044;2023-02-17T07:37:41;73;66;
70691;PMS5003;58267;51.156;17.044;2023-02-17T07:40:07;74;69;
70691;PMS5003;58267;51.156;17.044;2023-02-17T07:42:33;68;63;
70691;PMS5003;58267;51.156;17.044;2023-02-17T07:44:58;68;63;
70691;PMS5003;58267;51.156;17.044;2023-02-17T07:47:24;67;64;
70691;PMS5003;58267;51.156;17.044;2023-02-17T07:49:49;75;67;
70691;PMS5003;58267;51.156;17.044;2023-02-17T07:52:15;74;67;
70691;PMS5003;58267;51.156;17.044;2023-02-17T07:54:41;72;65;
70691;PMS5003;58267;51.156;17.044;2023-02-17T07:57:06;68;66;
70691;PMS5003;58267;51.156;17.044;2023-02-17T07:59:32;72;68;
70691;PMS5003;58267;51.156;17.044;2023-02-17T08:01:57;75;70;
70691;PMS5003;58267;51.156;17.044;2023-02-17T08:04:23;73;67;
70691;PMS5003;58267;51.156;17.044;2023-02-17T08:06:48;76;71;
70691;PMS5003;58267;51.156;17.044;2023-02-17T08:09:14;78;72;
70691;PMS5003;58267;51.156;17.044;2023-02-17T08:11:40;71;63;
70691;PMS5003;58267;51.156;17.044;2023-02-17T08:14:05;73;68;
70691;PMS5003;58267;51.156;17.044;2023-02-17T08:16:31;79;73;
70691;PMS5003;58267;51.156;17.044;2023-02-17T08:18:56;66;62;
70691;PMS5003;58267;51.156;17.044;2023-02-17T08:21:22;82;74;
70691;PMS5003;58267;51.156;17.044;2023-02-17T08:23:47;82;77;
70691;PMS5003;58267;51.156;17.044;2023-02-17T08:26:13;65;63;
70691;PMS5003;58267;51.156;17.044;2023-02-17T08:28:39;70;65;
70691;PMS5003;58267;51.156;17.044;2023-02-17T08:31:04;74;71;
70691;PMS5003;58267;51.156;17.044;2023-02-17T08:33:30;65;63;
70691;PMS5003;58267;51.156;17.044;2023-02-17T08:35:55;64;60;
70691;PMS5003;58267;51.156;17.044;2023-02-17T08:38:20;73;66;
70691;PMS5003;58267;51.156;17.044;2023-02-17T08:40:46;67;63;
70691;PMS5003;58267;51.156;17.044;2023-02-17T08:43:11;69;65;
70691;PMS5003;58267;51.156;17.044;2023-02-17T08:45:37;76;68;
70691;PMS5003;58267;51.156;17.044;2023-02-17T08:48:02;69;63;
70691;PMS5003;58267;51.156;17.044;2023-02-17T08:50:28;69;66;
70691;PMS5003;58267;51.156;17.044;2023-02-17T08:52:53;65;61;
70691;PMS5003;58267;51.156;17.044;2023-02-17T08:55:19;74;66;
70691;PMS5003;58267;51.156;17.044;2023-02-17T08:57:44;75;68;
70691;PMS5003;58267;51.156;17.044;2023-02-17T09:00:10;73;70;
70691;PMS5003;58267;51.156;17.044;2023-02-17T09:02:35;71;68;
70691;PMS5003;58267;51.156;17.044;2023-02-17T09:05:00;67;61;
70691;PMS5003;58267;51.156;17.044;2023-02-17T09:07:26;64;62;
70691;PMS5003;58267;51.156;17.044;2023-02-17T09:09:51;67;62;
70691;PMS5003;58267;51.156;17.044;2023-02-17T09:12:16;74;69;
70691;PMS5003;58267;51.156;17.044;2023-02-17T09:14:41;67;60;
70691;PMS5003;58267;51.156;17.044;2023-02-17T09:17:08;65;62;
70691;PMS5003;58267;51.156;17.044;2023-02-17T09:19:36;72;63;
70691;PMS5003;58267;51.156;17.044;2023-02-17T09:21:59;69;61;
70691;PMS5003;58267;51.156;17.044;2023-02-17T09:24:24;69;64;
70691;PMS5003;58267;51.156;17.044;2023-02-17T09:26:50;72;67;
70691;PMS5003;58267;51.156;17.044;2023-02-17T09:29:15;69;63;
70691;PMS5003;58267;51.156;17.044;2023-02-17T09:31:40;68;62;
70691;PMS5003;58267;51.156;17.044;2023-02-17T09:34:05;66;63;
70691;PMS5003;58267;51.156;17.044;2023-02-17T09:36:38;68;65;
70691;PMS5003;58267;51.156;17.044;2023-02-17T09:38:56;67;64;
70691;PMS5003;58267;51.156;17.044;2023-02-17T09:41:22;70;69;
70691;PMS5003;58267;51.156;17.044;2023-02-17T09:43:48;73;66;
70691;PMS5003;58267;51.156;17.044;2023-02-17T09:46:14;69;66;
70691;PMS5003;58267;51.156;17.044;2023-02-17T09:48:38;59;55;
70691;PMS5003;58267;51.156;17.044;2023-02-17T09:51:05;67;64;
70691;PMS5003;58267;51.156;17.044;2023-02-17T09:53:30;62;59;
70691;PMS5003;58267;51.156;17.044;2023-02-17T09:55:56;73;69;
70691;PMS5003;58267;51.156;17.044;2023-02-17T09:58:22;66;65;
70691;PMS5003;58267;51.156;17.044;2023-02-17T10:00:49;67;62;
70691;PMS5003;58267;51.156;17.044;2023-02-17T10:03:14;62;57;
70691;PMS5003;58267;51.156;17.044;2023-02-17T10:05:39;67;61;
70691;PMS5003;58267;51.156;17.044;2023-02-17T10:08:05;60;55;
70691;PMS5003;58267;51.156;17.044;2023-02-17T10:10:30;63;60;
70691;PMS5003;58267;51.156;17.044;2023-02-17T10:12:55;62;57;
70691;PMS5003;58267;51.156;17.044;2023-02-17T10:15:21;62;56;
70691;PMS5003;58267;51.156;17.044;2023-02-17T10:17:47;67;60;
70691;PMS5003;58267;51.156;17.044;2023-02-17T10:20:11;60;56;
70691;PMS5003;58267;51.156;17.044;2023-02-17T10:22:36;60;55;
70691;PMS5003;58267;51.156;17.044;2023-02-17T10:25:02;65;61;
70691;PMS5003;58267;51.156;17.044;2023-02-17T10:27:29;56;52;
70691;PMS5003;58267;51.156;17.044;2023-02-17T10:29:56;62;55;
70691;PMS5003;58267;51.156;17.044;2023-02-17T10:32:20;55;50;
70691;PMS5003;58267;51.156;17.044;2023-02-17T10:34:45;58;54;
70691;PMS5003;58267;51.156;17.044;2023-02-17T10:37:11;59;57;
70691;PMS5003;58267;51.156;17.044;2023-02-17T10:39:38;59;54;
70691;PMS5003;58267;51.156;17.044;2023-02-17T10:41:59;49;47;
70691;PMS5003;58267;51.156;17.044;2023-02-17T10:44:25;57;53;
70691;PMS5003;58267;51.156;17.044;2023-02-17T10:46:50;53;51;
70691;PMS5003;58267;51.156;17.044;2023-02-17T10:49:17;53;52;
70691;PMS5003;58267;51.156;17.044;2023-02-17T10:51:41;53;52;
70691;PMS5003;58267;51.156;17.044;2023-02-17T10:54:15;55;50;
70691;PMS5003;58267;51.156;17.044;2023-02-17T10:56:34;53;51;
70691;PMS5003;58267;51.156;17.044;2023-02-17T10:58:58;58;52;
70691;PMS5003;58267;51.156;17.044;2023-02-17T11:01:23;56;53;
70691;PMS5003;58267;51.156;17.044;2023-02-17T11:06:15;49;46;
70691;PMS5003;58267;51.156;17.044;2023-02-17T11:08:43;55;51;
70691;PMS5003;58267;51.156;17.044;2023-02-17T11:11:06;50;48;
70691;PMS5003;58267;51.156;17.044;2023-02-17T11:13:33;51;42;
70691;PMS5003;58267;51.156;17.044;2023-02-17T11:15:57;47;45;
70691;PMS5003;58267;51.156;17.044;2023-02-17T11:18:24;50;48;
70691;PMS5003;58267;51.156;17.044;2023-02-17T11:20:48;42;38;
70691;PMS5003;58267;51.156;17.044;2023-02-17T11:23:20;56;51;
70691;PMS5003;58267;51.156;17.044;2023-02-17T11:25:38;47;42;
70691;PMS5003;58267;51.156;17.044;2023-02-17T11:28:05;43;42;
70691;PMS5003;58267;51.156;17.044;2023-02-17T11:30:30;50;47;
70691;PMS5003;58267;51.156;17.044;2023-02-17T11:32:54;49;46;
70691;PMS5003;58267;51.156;17.044;2023-02-17T11:35:21;43;42;
70691;PMS5003;58267;51.156;17.044;2023-02-17T11:37:45;50;47;
70691;PMS5003;58267;51.156;17.044;2023-02-17T11:40:21;43;40;
70691;PMS5003;58267;51.156;17.044;2023-02-17T11:42:36;47;44;
70691;PMS5003;58267;51.156;17.044;2023-02-17T11:45:09;47;46;
70691;PMS5003;58267;51.156;17.044;2023-02-17T11:47:29;43;41;
70691;PMS5003;58267;51.156;17.044;2023-02-17T11:49:55;46;39;
70691;PMS5003;58267;51.156;17.044;2023-02-17T11:52:20;44;42;
70691;PMS5003;58267;51.156;17.044;2023-02-17T11:54:46;47;45;
70691;PMS5003;58267;51.156;17.044;2023-02-17T11:57:13;40;39;
70691;PMS5003;58267;51.156;17.044;2023-02-17T11:59:35;42;39;
70691;PMS5003;58267;51.156;17.044;2023-02-17T12:02:10;43;41;
70691;PMS5003;58267;51.156;17.044;2023-02-17T12:04:25;40;36;
70691;PMS5003;58267;51.156;17.044;2023-02-17T12:06:53;41;39;
70691;PMS5003;58267;51.156;17.044;2023-02-17T12:09:17;43;41;
70691;PMS5003;58267;51.156;17.044;2023-02-17T12:11:43;42;41;
70691;PMS5003;58267;51.156;17.044;2023-02-17T12:14:11;36;35;
70691;PMS5003;58267;51.156;17.044;2023-02-17T12:16:36;35;34;
70691;PMS5003;58267;51.156;17.044;2023-02-17T12:19:00;32;31;
70691;PMS5003;58267;51.156;17.044;2023-02-17T12:21:26;33;30;
70691;PMS5003;58267;51.156;17.044;2023-02-17T12:23:54;37;30;
70691;PMS5003;58267;51.156;17.044;2023-02-17T12:26:15;34;32;
70691;PMS5003;58267;51.156;17.044;2023-02-17T12:28:41;29;24;
70691;PMS5003;58267;51.156;17.044;2023-02-17T12:31:06;32;31;
70691;PMS5003;58267;51.156;17.044;2023-02-17T12:33:35;29;27;
70691;PMS5003;58267;51.156;17.044;2023-02-17T12:35:56;27;26;
70691;PMS5003;58267;51.156;17.044;2023-02-17T12:38:23;26;25;
70691;PMS5003;58267;51.156;17.044;2023-02-17T12:40:49;27;27;
70691;PMS5003;58267;51.156;17.044;2023-02-17T12:43:17;30;27;
70691;PMS5003;58267;51.156;17.044;2023-02-17T12:45:39;26;26;
70691;PMS5003;58267;51.156;17.044;2023-02-17T12:48:04;33;32;
70691;PMS5003;58267;51.156;17.044;2023-02-17T12:50:30;31;30;
70691;PMS5003;58267;51.156;17.044;2023-02-17T12:52:56;34;34;
70691;PMS5003;58267;51.156;17.044;2023-02-17T12:55:21;29;28;
70691;PMS5003;58267;51.156;17.044;2023-02-17T12:57:46;34;32;
70691;PMS5003;58267;51.156;17.044;2023-02-17T13:00:14;28;27;
70691;PMS5003;58267;51.156;17.044;2023-02-17T13:02:37;32;30;
70691;PMS5003;58267;51.156;17.044;2023-02-17T13:05:03;32;29;
70691;PMS5003;58267;51.156;17.044;2023-02-17T13:07:33;30;29;
70691;PMS5003;58267;51.156;17.044;2023-02-17T13:09:54;34;33;
70691;PMS5003;58267;51.156;17.044;2023-02-17T13:14:46;33;30;
70691;PMS5003;58267;51.156;17.044;2023-02-17T13:19:36;35;32;
70691;PMS5003;58267;51.156;17.044;2023-02-17T13:22:01;35;30;
70691;PMS5003;58267;51.156;17.044;2023-02-17T13:24:31;29;28;
70691;PMS5003;58267;51.156;17.044;2023-02-17T13:29:19;37;34;
70691;PMS5003;58267;51.156;17.044;2023-02-17T13:31:44;37;36;
70691;PMS5003;58267;51.156;17.044;2023-02-17T13:34:08;33;31;
70691;PMS5003;58267;51.156;17.044;2023-02-17T13:36:36;44;43;
70691;PMS5003;58267;51.156;17.044;2023-02-17T13:39:02;37;35;
70691;PMS5003;58267;51.156;17.044;2023-02-17T13:41:27;37;36;
70691;PMS5003;58267;51.156;17.044;2023-02-17T13:43:52;36;34;
70691;PMS5003;58267;51.156;17.044;2023-02-17T13:46:18;41;39;
70691;PMS5003;58267;51.156;17.044;2023-02-17T13:48:43;43;41;
70691;PMS5003;58267;51.156;17.044;2023-02-17T13:53:35;40;38;
70691;PMS5003;58267;51.156;17.044;2023-02-17T13:56:00;43;41;
70691;PMS5003;58267;51.156;17.044;2023-02-17T13:58:25;39;38;
70691;PMS5003;58267;51.156;17.044;2023-02-17T14:00:49;43;41;
70691;PMS5003;58267;51.156;17.044;2023-02-17T14:03:16;43;41;
70691;PMS5003;58267;51.156;17.044;2023-02-17T14:05:41;43;39;
70691;PMS5003;58267;51.156;17.044;2023-02-17T14:08:05;38;38;
70691;PMS5003;58267;51.156;17.044;2023-02-17T14:10:31;39;37;
70691;PMS5003;58267;51.156;17.044;2023-02-17T14:12:56;42;40;
70691;PMS5003;58267;51.156;17.044;2023-02-17T14:15:23;36;35;
70691;PMS5003;58267;51.156;17.044;2023-02-17T14:17:47;38;38;
70691;PMS5003;58267;51.156;17.044;2023-02-17T14:22:39;41;39;
70691;PMS5003;58267;51.156;17.044;2023-02-17T14:25:05;40;38;
70691;PMS5003;58267;51.156;17.044;2023-02-17T14:29:55;38;37;
70691;PMS5003;58267;51.156;17.044;2023-02-17T14:34:46;36;35;
70691;PMS5003;58267;51.156;17.044;2023-02-17T14:37:16;39;39;
70691;PMS5003;58267;51.156;17.044;2023-02-17T14:39:37;35;34;
70691;PMS5003;58267;51.156;17.044;2023-02-17T14:42:04;34;34;
70691;PMS5003;58267;51.156;17.044;2023-02-17T14:44:30;35;35;
70691;PMS5003;58267;51.156;17.044;2023-02-17T14:47:00;36;35;
70691;PMS5003;58267;51.156;17.044;2023-02-17T14:49:20;33;29;
70691;PMS5003;58267;51.156;17.044;2023-02-17T14:51:46;31;30;
70691;PMS5003;58267;51.156;17.044;2023-02-17T14:54:12;33;33;
70691;PMS5003;58267;51.156;17.044;2023-02-17T14:56:37;33;33;
70691;PMS5003;58267;51.156;17.044;2023-02-17T14:59:03;33;32;
70691;PMS5003;58267;51.156;17.044;2023-02-17T15:01:29;35;32;
70691;PMS5003;58267;51.156;17.044;2023-02-17T15:03:54;36;33;
70691;PMS5003;58267;51.156;17.044;2023-02-17T15:06:21;32;30;
70691;PMS5003;58267;51.156;17.044;2023-02-17T15:08:46;37;36;
70691;PMS5003;58267;51.156;17.044;2023-02-17T15:11:15;34;30;
70691;PMS5003;58267;51.156;17.044;2023-02-17T15:13:37;29;29;
70691;PMS5003;58267;51.156;17.044;2023-02-17T15:16:02;37;34;
70691;PMS5003;58267;51.156;17.044;2023-02-17T15:18:27;31;30;
70691;PMS5003;58267;51.156;17.044;2023-02-17T15:20:53;34;34;
70691;PMS5003;58267;51.156;17.044;2023-02-17T15:23:20;33;32;
70691;PMS5003;58267;51.156;17.044;2023-02-17T15:25:44;30;28;
70691;PMS5003;58267;51.156;17.044;2023-02-17T15:28:10;32;29;
70691;PMS5003;58267;51.156;17.044;2023-02-17T15:30:35;35;35;
70691;PMS5003;58267;51.156;17.044;2023-02-17T15:33:00;31;30;
70691;PMS5003;58267;51.156;17.044;2023-02-17T15:35:26;27;26;
70691;PMS5003;58267;51.156;17.044;2023-02-17T15:37:52;31;29;
70691;PMS5003;58267;51.156;17.044;2023-02-17T15:40:17;27;27;
70691;PMS5003;58267;51.156;17.044;2023-02-17T15:42:42;29;25;
70691;PMS5003;58267;51.156;17.044;2023-02-17T15:45:09;29;29;
70691;PMS5003;58267;51.156;17.044;2023-02-17T15:47:34;25;22;
70691;PMS5003;58267;51.156;17.044;2023-02-17T15:49:59;26;25;
70691;PMS5003;58267;51.156;17.044;2023-02-17T15:52:25;30;27;
70691;PMS5003;58267;51.156;17.044;2023-02-17T15:54:50;26;26;
70691;PMS5003;58267;51.156;17.044;2023-02-17T15:57:21;23;23;
70691;PMS5003;58267;51.156;17.044;2023-02-17T15:59:41;22;21;
70691;PMS5003;58267;51.156;17.044;2023-02-17T16:02:09;26;23;
70691;PMS5003;58267;51.156;17.044;2023-02-17T16:04:31;18;18;
70691;PMS5003;58267;51.156;17.044;2023-02-17T16:06:56;18;18;
70691;PMS5003;58267;51.156;17.044;2023-02-17T16:09:21;22;21;
70691;PMS5003;58267;51.156;17.044;2023-02-17T16:11:48;18;16;
70691;PMS5003;58267;51.156;17.044;2023-02-17T16:14:15;17;17;
70691;PMS5003;58267;51.156;17.044;2023-02-17T16:16:38;25;24;
70691;PMS5003;58267;51.156;17.044;2023-02-17T16:19:03;27;26;
70691;PMS5003;58267;51.156;17.044;2023-02-17T16:21:29;22;20;